Maple Ridge, Canada
Current Conditions -  °F | °C
As of 11:00 PM on Thursday 27 Nov 2014 (Local Time) from CYXX Reporting Station
Light Rain Light Rain  
Wind Chill: 54°   Ceiling: 2000
Heat Index: 54°   Visibility: 10mi
Dew Point: 52°   Wind: 18mph
Humidity: 94%   Direction: 190°S
Pressure: 29.57"   Gusts: NA
Location:  49.22°N, 122.6°W
Report Text: CYXX 280700Z 19016KT 10SM -RA FEW010 OVC020 12/11 A2957 RMK SF1SC7 SLP013 DENSITY ALT 200FT
Loading
Personal Weather Stations






























Interactive Weather Map New forecast layout! Learn more

10-Day Weather Forecast

Advertisements
Track Severe Weather on mobile